Fascination — C6FM9 — position and weather

sailwx.info

Track history (hours):
 
Tides and Currents Weather Stations Pressure Air Temp Water Temp Dewpoint Dewpoint Depression Visibility Wind Speed Wind Dir Waves Ship Positions

Fascination

Operator: Carnival Cruise Lines

Last reported at 2016-May-26 03:00 UTC. Time now 2016-May-26 10:43 UTC.
Position N 13°18' W 060°24'.

Type: Ship. MMSI: 309682000.

Wind from 050 at 13 knots

Waves 1.0 meters (3 feet), 1 second period

Barometer 1019.3 mb
Air temperature 28.0 ° C
Visibility: greater than 10.8 NM
Dewpoint 23.7 ° C
Water temperature 27.0 ° C

Date/timePositionNaut miles runAvg speedWind from/ knotsBaromVisibWave heightAir tempDewpointWater temp
2016-May-26 03:00N 13°18' W 060°24'381 7.4 050 / 131019.310.8 1.028.023.727.0
2016-May-23 23:32N 18°05' W 064°45'1110.7
2016-May-23 22:33N 18°10' W 064°55'70 2.0
2016-May-22 11:17N 18°28' W 066°07'0 0.0
2016-May-22 10:30N 18°28' W 066°07'7010.1
2016-May-22 03:33N 18°10' W 064°55'7417.0
2016-May-21 23:10N 18°02' W 063°37'1117.4
2016-May-21 22:33N 18°02' W 063°26'1817.1
2016-May-21 21:29N 18°00' W 063°07'4 0.4
2016-May-21 10:24N 18°01' W 063°03'4 4.9
2016-May-21 09:33N 18°01' W 063°07'8 7.9
2016-May-21 08:33N 18°02' W 063°15'9 7.9
2016-May-21 07:23N 18°04' W 063°25'6 7.3
2016-May-21 06:32N 18°03' W 063°31'4 3.3
2016-May-21 05:25N 18°04' W 063°35'7 6.6
2016-May-21 04:19N 17°59' W 063°30'8 9.8
2016-May-21 03:28N 17°56' W 063°22'9 9.4
2016-May-21 02:33N 17°50' W 063°15'11 9.9
2016-May-21 01:29N 17°42' W 063°08'73 4.3
2016-May-20 08:33N 16°39' W 062°30'  
2016-May-16 23:13N 18°06' W 064°46'810.7
2016-May-16 22:31N 18°09' W 064°53'  
Track history (hours):
 
Tides and Currents Weather Stations Pressure Air Temp Water Temp Dewpoint Dewpoint Depression Visibility Wind Speed Wind Dir Waves Ship Positions

Fascination

Operator: Carnival Cruise Lines

Last reported at 2016-May-26 03:00 UTC. Time now 2016-May-26 10:43 UTC.
Position N 13°18' W 060°24'.

Type: Ship. MMSI: 309682000.

Wind from 050 at 13 knots

Waves 1.0 meters (3 feet), 1 second period

Barometer 1019.3 mb
Air temperature 28.0 ° C
Visibility: greater than 10.8 NM
Dewpoint 23.7 ° C
Water temperature 27.0 ° C

Date/timePositionNaut miles runAvg speedWind from/ knotsBaromVisibWave heightAir tempDewpointWater temp
2016-May-26 03:00N 13°18' W 060°24'381 7.4 050 / 131019.310.8 1.028.023.727.0
2016-May-23 23:32N 18°05' W 064°45'1110.7
2016-May-23 22:33N 18°10' W 064°55'70 2.0
2016-May-22 11:17N 18°28' W 066°07'0 0.0
2016-May-22 10:30N 18°28' W 066°07'7010.1
2016-May-22 03:33N 18°10' W 064°55'7417.0
2016-May-21 23:10N 18°02' W 063°37'1117.4
2016-May-21 22:33N 18°02' W 063°26'1817.1
2016-May-21 21:29N 18°00' W 063°07'4 0.4
2016-May-21 10:24N 18°01' W 063°03'4 4.9
2016-May-21 09:33N 18°01' W 063°07'8 7.9
2016-May-21 08:33N 18°02' W 063°15'9 7.9
2016-May-21 07:23N 18°04' W 063°25'6 7.3
2016-May-21 06:32N 18°03' W 063°31'4 3.3
2016-May-21 05:25N 18°04' W 063°35'7 6.6
2016-May-21 04:19N 17°59' W 063°30'8 9.8
2016-May-21 03:28N 17°56' W 063°22'9 9.4
2016-May-21 02:33N 17°50' W 063°15'11 9.9
2016-May-21 01:29N 17°42' W 063°08'73 4.3
2016-May-20 08:33N 16°39' W 062°30'  
2016-May-16 23:13N 18°06' W 064°46'810.7
2016-May-16 22:31N 18°09' W 064°53'  

Dump ship's entire track history